Blue Grass, Iowa
Current Conditions -  °F | °C
As of 12:07 AM on Sunday 21 Dec 2014 (Local Time) from KDVN Reporting Station
Haze Haze  
Wind Chill: 25°   Ceiling: 900
Heat Index: 33°   Visibility: 3mi
Dew Point: 30°   Wind: 9mph
Humidity: 89%   Direction: 160°SSE
Pressure: 30.18"   Gusts: NA
Location:  41.51°N, 90.77°W
Report Text: KDVN 210607Z AUTO 16008KT 3SM BR OVC009 01/M01 A3018 RMK AO2 CIG 006V012 T00061011
Loading
Personal Weather Stations






























Interactive Weather Map New forecast layout! Learn more

10-Day Weather Forecast

Advertisements
Track Severe Weather on mobile